Current Conditions
Clear
Conditions



Pressure
1030.92 (mb) - 30.44 (inHG)
Visibility

10.0 (km) - 6.2 (miles)
   Temperature
4  °C
39°F
0  °C
Dewpoint
75  %
 Humidity
   Wind Speed
10  km/h
5  kts
6  mph
2.7  m/s
   Wind Direction
 100°
Due East
   Airport Data
LZPP
Location Piešťany Airport 26 km (16.16 mi)
Metar :LZPP 241800Z 10005KT CAVOK 04/M00 Q1031
Sun 24th October 19:00 pm
   Raw Metar Info
Raw METAR is the most common format in the world for the transmission of observational weather data. It is highly standardized through the International Civil Aviation Organization (ICAO), which allows it to be understood throughout most of the world.
   API Info
Data Provided by
https://www.checkwx.com/weather/LZPP
   © Info
CSS/SVG/PHP scripts were developed by weather34.com for use in the weather34 template © 2015-2021

Guide Info provided by Metar-Wikipedia